East Orchard Mesa, Colorado
Current Conditions -  °F | °C
As of 12:53 PM on Monday 24 Nov 2014 (Local Time) from KGJT Reporting Station
Clear Clear  
Wind Chill: 33°   Ceiling: Unl
Heat Index: 38°   Visibility: 10mi
Dew Point: 18°   Wind: 7mph
Humidity: 44%   Direction: 340°NNW
Pressure: 30.19"   Gusts: NA
Location:  39.0875°N, 108.348°W
Report Text: KGJT 241953Z 34006KT 10SM CLR 03/M08 A3019 RMK AO2 SLP245 T00331078
Loading
Personal Weather Stations






























Interactive Weather Map New forecast layout! Learn more

10-Day Weather Forecast

Advertisements
Track Severe Weather on mobile